首页
METAR-TAF:

METAR-TAF

机场 :

阿什哈巴德国际机场

阿什哈巴德, 土库曼斯坦

纬度: 37-59N, 经度: 058-22E, 海拔: 211米

当前天气观测

该预报发布于1小时和12分钟前的06:00 UTC
风速4节,风向西,在西南西转西北之间变化
温度 13°C
湿度 67%
气压 1012 hPa
能见度10公里或以上
散云层高于9900英尺
多云层高于23300英尺

METAR: UTAA 290600Z 27004KT 230V300 9999 SCT099 BKN233 13/07 Q1012 R88/70D NOSIG

时间: 12:12 (07:12 UTC)

预报

该预报发布于2小时和22分钟前的04:50 UTC
预报有效从29日的 05点(UTC)到 01日的 06点(UTC)
风速16节,风向北转东北
能見度: 6000
散云层高于3000英尺
散云层高于5000英尺, 积雨云.
短暂存在
从 29日的 05点(UTC)到 29日的 14点(UTC)
风速12节,风向,有时为22节阵风
成为
从 29日的 15点(UTC)到 29日的 17点(UTC)
风速16节,风向西转西北
能見度: 3000
多云层高于500英尺
轻雾

TAF: UTAA 290450Z 2905/0106 02016KT 6000 SCT030 SCT050CB TEMPO 2905/2914 08012G22KT BECMG 2915/2917 30016KT 3000 BR BKN005

超过4000个机场的气象观测和天气预报(METAR&TAF报告)。

可查询的气象台以黄色和红色小点在地图上表示。

将鼠标移到小点上方,可查看气象台名称。

然后点击查看天气观测和预报。

如需切换地图:点击带黑十字的绿色按钮放大地图;点击带横线的绿色按钮缩小地图;或者点击绿色箭头查看邻近地区的地图。


METAR-TAF: